sensor_id;sensor_type;location;lat;lon;timestamp;P1;durP1;ratioP1;P2;durP2;ratioP2
59416;SDS011;45222;52.458;20.914;2024-02-26T00:01:41;24.60;;;18.10;;
59416;SDS011;45222;52.458;20.914;2024-02-26T00:05:29;24.90;;;18.30;;
59416;SDS011;45222;52.458;20.914;2024-02-26T00:09:17;26.50;;;18.50;;
59416;SDS011;45222;52.458;20.914;2024-02-26T00:13:04;22.70;;;17.40;;
59416;SDS011;45222;52.458;20.914;2024-02-26T00:16:52;21.80;;;16.70;;
59416;SDS011;45222;52.458;20.914;2024-02-26T00:20:40;26.10;;;17.40;;
59416;SDS011;45222;52.458;20.914;2024-02-26T00:24:27;25.70;;;17.40;;
59416;SDS011;45222;52.458;20.914;2024-02-26T00:28:15;21.70;;;16.50;;
59416;SDS011;45222;52.458;20.914;2024-02-26T00:35:51;23.10;;;16.70;;
59416;SDS011;45222;52.458;20.914;2024-02-26T00:39:38;25.60;;;17.80;;
59416;SDS011;45222;52.458;20.914;2024-02-26T00:43:26;28.30;;;18.90;;
59416;SDS011;45222;52.458;20.914;2024-02-26T00:47:13;22.70;;;16.10;;
59416;SDS011;45222;52.458;20.914;2024-02-26T00:51:01;25.40;;;17.20;;
59416;SDS011;45222;52.458;20.914;2024-02-26T00:54:50;25.40;;;17.20;;
59416;SDS011;45222;52.458;20.914;2024-02-26T00:58:37;22.40;;;16.70;;
59416;SDS011;45222;52.458;20.914;2024-02-26T01:02:25;26.50;;;17.40;;
59416;SDS011;45222;52.458;20.914;2024-02-26T01:06:12;27.10;;;19.40;;
59416;SDS011;45222;52.458;20.914;2024-02-26T01:10:00;37.30;;;26.70;;
59416;SDS011;45222;52.458;20.914;2024-02-26T01:13:48;36.80;;;28.00;;
59416;SDS011;45222;52.458;20.914;2024-02-26T01:17:38;32.30;;;24.10;;
59416;SDS011;45222;52.458;20.914;2024-02-26T01:21:25;32.90;;;23.70;;
59416;SDS011;45222;52.458;20.914;2024-02-26T01:25:14;34.90;;;26.70;;
59416;SDS011;45222;52.458;20.914;2024-02-26T01:29:01;33.50;;;26.20;;
59416;SDS011;45222;52.458;20.914;2024-02-26T01:32:49;32.40;;;15.90;;
59416;SDS011;45222;52.458;20.914;2024-02-26T01:36:36;38.00;;;27.10;;
59416;SDS011;45222;52.458;20.914;2024-02-26T01:40:24;36.00;;;26.60;;
59416;SDS011;45222;52.458;20.914;2024-02-26T01:44:14;34.50;;;25.10;;
59416;SDS011;45222;52.458;20.914;2024-02-26T01:48:02;31.00;;;14.00;;
59416;SDS011;45222;52.458;20.914;2024-02-26T01:51:50;34.20;;;24.60;;
59416;SDS011;45222;52.458;20.914;2024-02-26T01:55:38;34.20;;;23.00;;
59416;SDS011;45222;52.458;20.914;2024-02-26T01:59:26;27.60;;;20.10;;
59416;SDS011;45222;52.458;20.914;2024-02-26T02:03:14;27.10;;;18.60;;
59416;SDS011;45222;52.458;20.914;2024-02-26T02:07:02;28.20;;;19.70;;
59416;SDS011;45222;52.458;20.914;2024-02-26T02:10:50;27.10;;;10.90;;
59416;SDS011;45222;52.458;20.914;2024-02-26T02:14:38;27.70;;;12.50;;
59416;SDS011;45222;52.458;20.914;2024-02-26T02:18:26;28.00;;;11.70;;
59416;SDS011;45222;52.458;20.914;2024-02-26T02:22:14;29.30;;;20.20;;
59416;SDS011;45222;52.458;20.914;2024-02-26T02:26:02;28.40;;;19.60;;
59416;SDS011;45222;52.458;20.914;2024-02-26T02:29:49;24.90;;;17.50;;
59416;SDS011;45222;52.458;20.914;2024-02-26T02:37:42;22.50;;;17.20;;
59416;SDS011;45222;52.458;20.914;2024-02-26T02:41:29;25.30;;;17.90;;
59416;SDS011;45222;52.458;20.914;2024-02-26T02:45:17;26.70;;;19.10;;
59416;SDS011;45222;52.458;20.914;2024-02-26T02:49:07;23.70;;;18.20;;
59416;SDS011;45222;52.458;20.914;2024-02-26T02:52:55;23.50;;;17.80;;
59416;SDS011;45222;52.458;20.914;2024-02-26T02:56:43;25.40;;;18.60;;
59416;SDS011;45222;52.458;20.914;2024-02-26T03:00:31;23.50;;;10.90;;
59416;SDS011;45222;52.458;20.914;2024-02-26T03:04:18;28.00;;;12.10;;
59416;SDS011;45222;52.458;20.914;2024-02-26T03:08:06;26.20;;;19.70;;
59416;SDS011;45222;52.458;20.914;2024-02-26T03:11:54;25.80;;;18.20;;
59416;SDS011;45222;52.458;20.914;2024-02-26T03:15:42;22.70;;;11.30;;
59416;SDS011;45222;52.458;20.914;2024-02-26T03:19:29;23.30;;;18.00;;
59416;SDS011;45222;52.458;20.914;2024-02-26T03:23:17;28.40;;;19.50;;
59416;SDS011;45222;52.458;20.914;2024-02-26T03:27:05;26.60;;;19.40;;
59416;SDS011;45222;52.458;20.914;2024-02-26T03:30:54;25.20;;;10.90;;
59416;SDS011;45222;52.458;20.914;2024-02-26T03:34:42;26.80;;;20.10;;
59416;SDS011;45222;52.458;20.914;2024-02-26T03:38:29;25.10;;;19.60;;
59416;SDS011;45222;52.458;20.914;2024-02-26T03:42:17;21.60;;;11.20;;
59416;SDS011;45222;52.458;20.914;2024-02-26T03:46:04;29.00;;;20.40;;
59416;SDS011;45222;52.458;20.914;2024-02-26T03:49:56;32.00;;;21.90;;
59416;SDS011;45222;52.458;20.914;2024-02-26T03:53:43;28.30;;;19.70;;
59416;SDS011;45222;52.458;20.914;2024-02-26T03:57:31;27.80;;;19.60;;
59416;SDS011;45222;52.458;20.914;2024-02-26T04:01:19;22.50;;;11.90;;
59416;SDS011;45222;52.458;20.914;2024-02-26T04:05:10;26.70;;;21.40;;
59416;SDS011;45222;52.458;20.914;2024-02-26T04:08:58;29.70;;;22.10;;
59416;SDS011;45222;52.458;20.914;2024-02-26T04:12:48;25.20;;;12.90;;
59416;SDS011;45222;52.458;20.914;2024-02-26T04:16:36;30.20;;;21.60;;
59416;SDS011;45222;52.458;20.914;2024-02-26T04:20:23;25.50;;;12.40;;
59416;SDS011;45222;52.458;20.914;2024-02-26T04:24:11;26.50;;;20.60;;
59416;SDS011;45222;52.458;20.914;2024-02-26T04:27:59;29.40;;;22.40;;
59416;SDS011;45222;52.458;20.914;2024-02-26T04:31:46;24.60;;;11.80;;
59416;SDS011;45222;52.458;20.914;2024-02-26T04:35:34;31.00;;;22.50;;
59416;SDS011;45222;52.458;20.914;2024-02-26T04:39:22;28.70;;;21.10;;
59416;SDS011;45222;52.458;20.914;2024-02-26T04:43:10;27.00;;;11.60;;
59416;SDS011;45222;52.458;20.914;2024-02-26T04:46:59;27.80;;;21.00;;
59416;SDS011;45222;52.458;20.914;2024-02-26T04:50:47;32.50;;;22.00;;
59416;SDS011;45222;52.458;20.914;2024-02-26T04:54:35;29.90;;;21.30;;
59416;SDS011;45222;52.458;20.914;2024-02-26T04:58:22;33.70;;;23.00;;
59416;SDS011;45222;52.458;20.914;2024-02-26T05:02:10;32.90;;;22.30;;
59416;SDS011;45222;52.458;20.914;2024-02-26T05:05:57;27.20;;;19.90;;
59416;SDS011;45222;52.458;20.914;2024-02-26T05:09:46;25.00;;;12.50;;
59416;SDS011;45222;52.458;20.914;2024-02-26T05:13:34;28.80;;;11.70;;
59416;SDS011;45222;52.458;20.914;2024-02-26T05:17:23;30.70;;;20.70;;
59416;SDS011;45222;52.458;20.914;2024-02-26T05:21:10;30.40;;;22.40;;
59416;SDS011;45222;52.458;20.914;2024-02-26T05:24:58;27.50;;;12.10;;
59416;SDS011;45222;52.458;20.914;2024-02-26T05:28:46;33.10;;;24.40;;
59416;SDS011;45222;52.458;20.914;2024-02-26T05:32:33;36.50;;;24.80;;
59416;SDS011;45222;52.458;20.914;2024-02-26T05:36:21;35.30;;;23.00;;
59416;SDS011;45222;52.458;20.914;2024-02-26T05:40:10;27.60;;;13.10;;
59416;SDS011;45222;52.458;20.914;2024-02-26T05:43:58;44.30;;;23.80;;
59416;SDS011;45222;52.458;20.914;2024-02-26T05:47:47;34.80;;;23.50;;
59416;SDS011;45222;52.458;20.914;2024-02-26T05:51:34;35.80;;;23.80;;
59416;SDS011;45222;52.458;20.914;2024-02-26T05:55:22;39.60;;;25.50;;
59416;SDS011;45222;52.458;20.914;2024-02-26T05:59:10;38.80;;;24.80;;
59416;SDS011;45222;52.458;20.914;2024-02-26T06:03:00;36.60;;;23.10;;
59416;SDS011;45222;52.458;20.914;2024-02-26T06:06:48;34.40;;;22.70;;
59416;SDS011;45222;52.458;20.914;2024-02-26T06:10:35;35.10;;;22.60;;
59416;SDS011;45222;52.458;20.914;2024-02-26T06:14:24;35.00;;;15.40;;
59416;SDS011;45222;52.458;20.914;2024-02-26T06:18:11;44.30;;;26.50;;
59416;SDS011;45222;52.458;20.914;2024-02-26T06:21:59;44.50;;;16.50;;
59416;SDS011;45222;52.458;20.914;2024-02-26T06:25:47;35.50;;;24.00;;
59416;SDS011;45222;52.458;20.914;2024-02-26T06:29:34;35.50;;;22.20;;
59416;SDS011;45222;52.458;20.914;2024-02-26T06:33:22;29.90;;;21.60;;
59416;SDS011;45222;52.458;20.914;2024-02-26T06:37:10;26.90;;;21.30;;
59416;SDS011;45222;52.458;20.914;2024-02-26T06:40:58;28.90;;;13.20;;
59416;SDS011;45222;52.458;20.914;2024-02-26T06:44:48;32.40;;;24.60;;
59416;SDS011;45222;52.458;20.914;2024-02-26T06:48:36;30.20;;;24.20;;
59416;SDS011;45222;52.458;20.914;2024-02-26T06:52:24;30.60;;;23.40;;
59416;SDS011;45222;52.458;20.914;2024-02-26T06:56:11;29.30;;;14.70;;
59416;SDS011;45222;52.458;20.914;2024-02-26T06:59:59;28.20;;;22.10;;
59416;SDS011;45222;52.458;20.914;2024-02-26T07:07:35;40.00;;;25.10;;
59416;SDS011;45222;52.458;20.914;2024-02-26T07:11:22;33.30;;;14.90;;
59416;SDS011;45222;52.458;20.914;2024-02-26T07:15:10;35.00;;;25.70;;
59416;SDS011;45222;52.458;20.914;2024-02-26T07:18:58;30.00;;;22.10;;
59416;SDS011;45222;52.458;20.914;2024-02-26T07:22:46;28.70;;;22.00;;
59416;SDS011;45222;52.458;20.914;2024-02-26T07:26:34;28.60;;;21.00;;
59416;SDS011;45222;52.458;20.914;2024-02-26T07:30:22;27.50;;;20.00;;
59416;SDS011;45222;52.458;20.914;2024-02-26T07:34:10;27.20;;;21.10;;
59416;SDS011;45222;52.458;20.914;2024-02-26T07:37:58;31.40;;;24.50;;
59416;SDS011;45222;52.458;20.914;2024-02-26T07:41:45;27.90;;;23.30;;
59416;SDS011;45222;52.458;20.914;2024-02-26T07:45:37;24.90;;;21.00;;
59416;SDS011;45222;52.458;20.914;2024-02-26T07:49:25;24.80;;;20.70;;
59416;SDS011;45222;52.458;20.914;2024-02-26T07:53:13;26.20;;;20.40;;
59416;SDS011;45222;52.458;20.914;2024-02-26T07:57:01;28.90;;;20.20;;
59416;SDS011;45222;52.458;20.914;2024-02-26T08:00:51;26.90;;;20.00;;
59416;SDS011;45222;52.458;20.914;2024-02-26T08:04:41;27.50;;;21.90;;
59416;SDS011;45222;52.458;20.914;2024-02-26T08:08:28;25.70;;;20.80;;
59416;SDS011;45222;52.458;20.914;2024-02-26T08:12:17;25.50;;;20.00;;
59416;SDS011;45222;52.458;20.914;2024-02-26T08:16:05;25.60;;;20.20;;
59416;SDS011;45222;52.458;20.914;2024-02-26T08:19:54;27.00;;;21.00;;
59416;SDS011;45222;52.458;20.914;2024-02-26T08:23:42;25.60;;;21.00;;
59416;SDS011;45222;52.458;20.914;2024-02-26T08:27:30;27.30;;;20.80;;
59416;SDS011;45222;52.458;20.914;2024-02-26T08:31:18;26.00;;;20.70;;
59416;SDS011;45222;52.458;20.914;2024-02-26T08:35:06;24.30;;;19.90;;
59416;SDS011;45222;52.458;20.914;2024-02-26T08:38:54;24.80;;;20.20;;
59416;SDS011;45222;52.458;20.914;2024-02-26T08:42:44;24.10;;;19.10;;
59416;SDS011;45222;52.458;20.914;2024-02-26T08:46:32;23.90;;;19.40;;
59416;SDS011;45222;52.458;20.914;2024-02-26T08:50:20;22.70;;;17.60;;
59416;SDS011;45222;52.458;20.914;2024-02-26T08:54:07;23.50;;;17.10;;
59416;SDS011;45222;52.458;20.914;2024-02-26T08:57:58;22.80;;;18.40;;
59416;SDS011;45222;52.458;20.914;2024-02-26T09:01:45;25.80;;;20.80;;
59416;SDS011;45222;52.458;20.914;2024-02-26T09:05:33;24.10;;;19.30;;
59416;SDS011;45222;52.458;20.914;2024-02-26T09:09:20;23.00;;;19.40;;
59416;SDS011;45222;52.458;20.914;2024-02-26T09:13:11;24.20;;;18.50;;
59416;SDS011;45222;52.458;20.914;2024-02-26T09:16:59;25.90;;;19.10;;
59416;SDS011;45222;52.458;20.914;2024-02-26T09:20:47;22.90;;;19.30;;
59416;SDS011;45222;52.458;20.914;2024-02-26T09:24:36;24.60;;;19.30;;
59416;SDS011;45222;52.458;20.914;2024-02-26T09:28:24;20.90;;;18.50;;
59416;SDS011;45222;52.458;20.914;2024-02-26T09:32:11;23.50;;;18.80;;
59416;SDS011;45222;52.458;20.914;2024-02-26T09:35:59;22.20;;;18.50;;
59416;SDS011;45222;52.458;20.914;2024-02-26T09:39:46;19.40;;;16.30;;
59416;SDS011;45222;52.458;20.914;2024-02-26T09:43:35;20.50;;;16.30;;
59416;SDS011;45222;52.458;20.914;2024-02-26T09:47:27;22.10;;;18.10;;
59416;SDS011;45222;52.458;20.914;2024-02-26T09:51:23;20.60;;;17.90;;
59416;SDS011;45222;52.458;20.914;2024-02-26T09:58:57;21.70;;;17.00;;
59416;SDS011;45222;52.458;20.914;2024-02-26T10:02:47;20.30;;;15.70;;
59416;SDS011;45222;52.458;20.914;2024-02-26T10:06:35;19.70;;;15.50;;
59416;SDS011;45222;52.458;20.914;2024-02-26T10:10:24;17.20;;;14.10;;
59416;SDS011;45222;52.458;20.914;2024-02-26T10:14:14;19.30;;;15.00;;
59416;SDS011;45222;52.458;20.914;2024-02-26T10:18:04;15.80;;;13.10;;
59416;SDS011;45222;52.458;20.914;2024-02-26T10:21:54;15.70;;;13.20;;
59416;SDS011;45222;52.458;20.914;2024-02-26T10:25:53;19.10;;;12.90;;
59416;SDS011;45222;52.458;20.914;2024-02-26T10:29:41;17.60;;;14.20;;
59416;SDS011;45222;52.458;20.914;2024-02-26T10:33:32;16.60;;;12.50;;
59416;SDS011;45222;52.458;20.914;2024-02-26T10:37:21;14.30;;;12.40;;
59416;SDS011;45222;52.458;20.914;2024-02-26T10:41:14;15.00;;;12.50;;
59416;SDS011;45222;52.458;20.914;2024-02-26T10:45:01;14.20;;;12.00;;
59416;SDS011;45222;52.458;20.914;2024-02-26T10:48:50;16.80;;;13.70;;
59416;SDS011;45222;52.458;20.914;2024-02-26T10:52:39;14.90;;;13.10;;
59416;SDS011;45222;52.458;20.914;2024-02-26T10:56:29;19.20;;;14.70;;
59416;SDS011;45222;52.458;20.914;2024-02-26T11:00:22;16.50;;;13.40;;
59416;SDS011;45222;52.458;20.914;2024-02-26T11:04:10;17.70;;;14.00;;
59416;SDS011;45222;52.458;20.914;2024-02-26T11:07:59;16.20;;;14.20;;
59416;SDS011;45222;52.458;20.914;2024-02-26T11:11:48;16.50;;;14.70;;
59416;SDS011;45222;52.458;20.914;2024-02-26T11:15:39;17.20;;;15.00;;
59416;SDS011;45222;52.458;20.914;2024-02-26T11:19:27;15.60;;;14.00;;
59416;SDS011;45222;52.458;20.914;2024-02-26T11:23:16;15.50;;;13.80;;
59416;SDS011;45222;52.458;20.914;2024-02-26T11:27:03;13.20;;;11.50;;
59416;SDS011;45222;52.458;20.914;2024-02-26T11:30:56;14.20;;;11.00;;
59416;SDS011;45222;52.458;20.914;2024-02-26T11:34:47;13.00;;;11.50;;
59416;SDS011;45222;52.458;20.914;2024-02-26T11:38:35;14.00;;;12.10;;
59416;SDS011;45222;52.458;20.914;2024-02-26T11:42:24;15.10;;;13.60;;
59416;SDS011;45222;52.458;20.914;2024-02-26T11:46:25;15.40;;;13.80;;
59416;SDS011;45222;52.458;20.914;2024-02-26T11:58:32;12.50;;;11.20;;
59416;SDS011;45222;52.458;20.914;2024-02-26T12:06:25;12.60;;;11.20;;
59416;SDS011;45222;52.458;20.914;2024-02-26T12:17:49;10.50;;;8.70;;
59416;SDS011;45222;52.458;20.914;2024-02-26T12:21:42;11.30;;;8.60;;
59416;SDS011;45222;52.458;20.914;2024-02-26T12:25:32;10.40;;;8.60;;
59416;SDS011;45222;52.458;20.914;2024-02-26T12:29:20;11.50;;;8.60;;
59416;SDS011;45222;52.458;20.914;2024-02-26T12:33:08;29.10;;;11.10;;
59416;SDS011;45222;52.458;20.914;2024-02-26T12:36:58;9.80;;;7.80;;
59416;SDS011;45222;52.458;20.914;2024-02-26T12:40:46;31.30;;;11.10;;
59416;SDS011;45222;52.458;20.914;2024-02-26T12:44:35;17.00;;;8.70;;
59416;SDS011;45222;52.458;20.914;2024-02-26T12:48:26;10.80;;;7.50;;
59416;SDS011;45222;52.458;20.914;2024-02-26T12:52:13;12.60;;;7.00;;
59416;SDS011;45222;52.458;20.914;2024-02-26T12:56:04;10.30;;;6.30;;
59416;SDS011;45222;52.458;20.914;2024-02-26T12:59:53;9.60;;;6.60;;
59416;SDS011;45222;52.458;20.914;2024-02-26T13:03:41;9.50;;;6.10;;
59416;SDS011;45222;52.458;20.914;2024-02-26T13:07:32;11.90;;;6.50;;
59416;SDS011;45222;52.458;20.914;2024-02-26T13:11:19;8.40;;;6.40;;
59416;SDS011;45222;52.458;20.914;2024-02-26T13:15:08;11.10;;;6.70;;
59416;SDS011;45222;52.458;20.914;2024-02-26T13:19:09;8.70;;;6.10;;
59416;SDS011;45222;52.458;20.914;2024-02-26T13:23:03;9.60;;;6.80;;
59416;SDS011;45222;52.458;20.914;2024-02-26T13:26:55;8.60;;;6.30;;
59416;SDS011;45222;52.458;20.914;2024-02-26T13:30:43;9.20;;;6.20;;
59416;SDS011;45222;52.458;20.914;2024-02-26T13:34:38;8.60;;;6.20;;
59416;SDS011;45222;52.458;20.914;2024-02-26T13:38:25;9.50;;;6.10;;
59416;SDS011;45222;52.458;20.914;2024-02-26T13:46:00;8.60;;;5.80;;
59416;SDS011;45222;52.458;20.914;2024-02-26T13:49:47;7.00;;;5.00;;
59416;SDS011;45222;52.458;20.914;2024-02-26T13:53:35;8.70;;;5.40;;
59416;SDS011;45222;52.458;20.914;2024-02-26T13:57:23;9.40;;;5.10;;
59416;SDS011;45222;52.458;20.914;2024-02-26T14:01:11;8.50;;;5.00;;
59416;SDS011;45222;52.458;20.914;2024-02-26T14:04:58;9.60;;;5.20;;
59416;SDS011;45222;52.458;20.914;2024-02-26T14:08:48;7.20;;;4.80;;
59416;SDS011;45222;52.458;20.914;2024-02-26T14:12:36;7.70;;;5.10;;
59416;SDS011;45222;52.458;20.914;2024-02-26T14:16:23;8.10;;;5.30;;
59416;SDS011;45222;52.458;20.914;2024-02-26T14:20:13;7.90;;;4.30;;
59416;SDS011;45222;52.458;20.914;2024-02-26T14:24:12;7.00;;;4.30;;
59416;SDS011;45222;52.458;20.914;2024-02-26T14:28:00;7.80;;;4.20;;
59416;SDS011;45222;52.458;20.914;2024-02-26T14:31:48;7.30;;;4.60;;
59416;SDS011;45222;52.458;20.914;2024-02-26T14:35:36;54.70;;;29.40;;
59416;SDS011;45222;52.458;20.914;2024-02-26T14:39:23;17.00;;;10.90;;
59416;SDS011;45222;52.458;20.914;2024-02-26T14:43:11;10.40;;;6.20;;
59416;SDS011;45222;52.458;20.914;2024-02-26T14:46:59;9.50;;;5.00;;
59416;SDS011;45222;52.458;20.914;2024-02-26T14:50:46;7.20;;;4.40;;
59416;SDS011;45222;52.458;20.914;2024-02-26T14:54:35;6.80;;;4.30;;
59416;SDS011;45222;52.458;20.914;2024-02-26T14:58:25;6.40;;;3.90;;
59416;SDS011;45222;52.458;20.914;2024-02-26T15:02:12;6.90;;;4.00;;
59416;SDS011;45222;52.458;20.914;2024-02-26T15:06:00;7.70;;;4.20;;
59416;SDS011;45222;52.458;20.914;2024-02-26T15:09:49;6.90;;;4.20;;
59416;SDS011;45222;52.458;20.914;2024-02-26T15:13:44;7.50;;;4.10;;
59416;SDS011;45222;52.458;20.914;2024-02-26T15:17:32;7.30;;;4.10;;
59416;SDS011;45222;52.458;20.914;2024-02-26T15:21:21;7.20;;;4.10;;
59416;SDS011;45222;52.458;20.914;2024-02-26T15:25:09;15.80;;;11.90;;
59416;SDS011;45222;52.458;20.914;2024-02-26T15:28:56;26.50;;;20.80;;
59416;SDS011;45222;52.458;20.914;2024-02-26T15:32:44;12.40;;;8.00;;
59416;SDS011;45222;52.458;20.914;2024-02-26T15:36:33;11.70;;;7.60;;
59416;SDS011;45222;52.458;20.914;2024-02-26T15:40:21;12.30;;;8.10;;
59416;SDS011;45222;52.458;20.914;2024-02-26T15:44:11;11.70;;;7.90;;
59416;SDS011;45222;52.458;20.914;2024-02-26T15:47:59;13.50;;;9.60;;
59416;SDS011;45222;52.458;20.914;2024-02-26T15:51:47;30.80;;;19.00;;
59416;SDS011;45222;52.458;20.914;2024-02-26T15:55:37;31.90;;;17.40;;
59416;SDS011;45222;52.458;20.914;2024-02-26T15:59:28;17.40;;;9.20;;
59416;SDS011;45222;52.458;20.914;2024-02-26T16:03:15;17.70;;;10.20;;
59416;SDS011;45222;52.458;20.914;2024-02-26T16:07:03;12.20;;;7.10;;
59416;SDS011;45222;52.458;20.914;2024-02-26T16:10:57;40.20;;;23.40;;
59416;SDS011;45222;52.458;20.914;2024-02-26T16:14:46;21.60;;;13.30;;
59416;SDS011;45222;52.458;20.914;2024-02-26T16:18:37;13.00;;;7.90;;
59416;SDS011;45222;52.458;20.914;2024-02-26T16:22:26;15.60;;;8.60;;
59416;SDS011;45222;52.458;20.914;2024-02-26T16:26:17;18.00;;;8.70;;
59416;SDS011;45222;52.458;20.914;2024-02-26T16:30:12;11.80;;;7.00;;
59416;SDS011;45222;52.458;20.914;2024-02-26T16:34:00;10.80;;;6.40;;
59416;SDS011;45222;52.458;20.914;2024-02-26T16:37:48;9.10;;;5.80;;
59416;SDS011;45222;52.458;20.914;2024-02-26T16:41:36;10.30;;;6.20;;
59416;SDS011;45222;52.458;20.914;2024-02-26T16:45:24;11.30;;;6.30;;
59416;SDS011;45222;52.458;20.914;2024-02-26T16:49:12;11.10;;;5.90;;
59416;SDS011;45222;52.458;20.914;2024-02-26T16:53:00;10.60;;;6.00;;
59416;SDS011;45222;52.458;20.914;2024-02-26T16:56:48;11.30;;;7.00;;
59416;SDS011;45222;52.458;20.914;2024-02-26T17:00:35;13.00;;;7.00;;
59416;SDS011;45222;52.458;20.914;2024-02-26T17:04:24;10.70;;;6.80;;
59416;SDS011;45222;52.458;20.914;2024-02-26T17:08:12;16.00;;;8.60;;
59416;SDS011;45222;52.458;20.914;2024-02-26T17:12:03;13.60;;;8.50;;
59416;SDS011;45222;52.458;20.914;2024-02-26T17:15:53;13.30;;;8.10;;
59416;SDS011;45222;52.458;20.914;2024-02-26T17:19:42;13.10;;;9.30;;
59416;SDS011;45222;52.458;20.914;2024-02-26T17:23:30;13.30;;;9.00;;
59416;SDS011;45222;52.458;20.914;2024-02-26T17:27:18;13.00;;;10.20;;
59416;SDS011;45222;52.458;20.914;2024-02-26T17:31:13;17.20;;;11.70;;
59416;SDS011;45222;52.458;20.914;2024-02-26T17:35:02;15.60;;;12.20;;
59416;SDS011;45222;52.458;20.914;2024-02-26T17:42:37;15.50;;;12.10;;
59416;SDS011;45222;52.458;20.914;2024-02-26T17:46:25;17.40;;;10.80;;
59416;SDS011;45222;52.458;20.914;2024-02-26T17:50:13;15.30;;;10.50;;
59416;SDS011;45222;52.458;20.914;2024-02-26T17:54:03;17.00;;;12.30;;
59416;SDS011;45222;52.458;20.914;2024-02-26T17:57:52;17.10;;;12.50;;
59416;SDS011;45222;52.458;20.914;2024-02-26T18:01:40;17.80;;;14.10;;
59416;SDS011;45222;52.458;20.914;2024-02-26T18:05:28;21.00;;;14.60;;
59416;SDS011;45222;52.458;20.914;2024-02-26T18:09:17;21.20;;;14.50;;
59416;SDS011;45222;52.458;20.914;2024-02-26T18:16:50;17.90;;;14.00;;
59416;SDS011;45222;52.458;20.914;2024-02-26T18:20:39;19.10;;;15.20;;
59416;SDS011;45222;52.458;20.914;2024-02-26T18:24:27;21.70;;;15.90;;
59416;SDS011;45222;52.458;20.914;2024-02-26T18:28:15;22.20;;;17.20;;
59416;SDS011;45222;52.458;20.914;2024-02-26T18:32:07;21.20;;;16.40;;
59416;SDS011;45222;52.458;20.914;2024-02-26T18:35:55;22.60;;;16.30;;
59416;SDS011;45222;52.458;20.914;2024-02-26T18:39:44;20.30;;;15.00;;
59416;SDS011;45222;52.458;20.914;2024-02-26T18:43:32;20.10;;;16.00;;
59416;SDS011;45222;52.458;20.914;2024-02-26T18:47:20;19.80;;;15.60;;
59416;SDS011;45222;52.458;20.914;2024-02-26T18:51:08;20.30;;;16.30;;
59416;SDS011;45222;52.458;20.914;2024-02-26T18:54:57;20.50;;;16.80;;
59416;SDS011;45222;52.458;20.914;2024-02-26T18:58:45;19.50;;;15.50;;
59416;SDS011;45222;52.458;20.914;2024-02-26T19:02:35;21.80;;;15.90;;
59416;SDS011;45222;52.458;20.914;2024-02-26T19:06:26;24.70;;;19.00;;
59416;SDS011;45222;52.458;20.914;2024-02-26T19:10:20;26.40;;;21.90;;
59416;SDS011;45222;52.458;20.914;2024-02-26T19:14:12;27.40;;;24.50;;
59416;SDS011;45222;52.458;20.914;2024-02-26T19:18:01;23.40;;;18.90;;
59416;SDS011;45222;52.458;20.914;2024-02-26T19:21:51;22.30;;;18.10;;
59416;SDS011;45222;52.458;20.914;2024-02-26T19:25:40;23.40;;;19.90;;
59416;SDS011;45222;52.458;20.914;2024-02-26T19:29:28;24.90;;;21.40;;
59416;SDS011;45222;52.458;20.914;2024-02-26T19:33:17;26.70;;;23.20;;
59416;SDS011;45222;52.458;20.914;2024-02-26T19:37:06;26.00;;;21.60;;
59416;SDS011;45222;52.458;20.914;2024-02-26T19:40:54;27.90;;;22.40;;
59416;SDS011;45222;52.458;20.914;2024-02-26T19:44:43;28.10;;;23.60;;
59416;SDS011;45222;52.458;20.914;2024-02-26T19:48:31;28.60;;;24.00;;
59416;SDS011;45222;52.458;20.914;2024-02-26T19:52:19;31.70;;;28.10;;
59416;SDS011;45222;52.458;20.914;2024-02-26T19:56:08;34.00;;;30.30;;
59416;SDS011;45222;52.458;20.914;2024-02-26T19:59:56;32.00;;;27.90;;
59416;SDS011;45222;52.458;20.914;2024-02-26T20:03:44;32.10;;;27.90;;
59416;SDS011;45222;52.458;20.914;2024-02-26T20:07:32;31.40;;;27.50;;
59416;SDS011;45222;52.458;20.914;2024-02-26T20:11:20;31.90;;;28.40;;
59416;SDS011;45222;52.458;20.914;2024-02-26T20:15:08;33.10;;;29.20;;
59416;SDS011;45222;52.458;20.914;2024-02-26T20:18:56;36.20;;;31.00;;
59416;SDS011;45222;52.458;20.914;2024-02-26T20:22:45;34.20;;;28.90;;
59416;SDS011;45222;52.458;20.914;2024-02-26T20:26:33;34.20;;;28.50;;
59416;SDS011;45222;52.458;20.914;2024-02-26T20:37:57;34.90;;;29.30;;
59416;SDS011;45222;52.458;20.914;2024-02-26T20:41:45;35.50;;;30.50;;
59416;SDS011;45222;52.458;20.914;2024-02-26T20:45:33;36.10;;;32.20;;
59416;SDS011;45222;52.458;20.914;2024-02-26T20:49:21;38.10;;;33.00;;
59416;SDS011;45222;52.458;20.914;2024-02-26T20:53:09;34.50;;;30.40;;
59416;SDS011;45222;52.458;20.914;2024-02-26T20:56:57;33.00;;;28.80;;
59416;SDS011;45222;52.458;20.914;2024-02-26T21:00:47;33.90;;;29.20;;
59416;SDS011;45222;52.458;20.914;2024-02-26T21:04:35;36.00;;;30.10;;
59416;SDS011;45222;52.458;20.914;2024-02-26T21:08:23;36.10;;;31.10;;
59416;SDS011;45222;52.458;20.914;2024-02-26T21:12:11;36.90;;;31.60;;
59416;SDS011;45222;52.458;20.914;2024-02-26T21:15:59;35.50;;;30.80;;
59416;SDS011;45222;52.458;20.914;2024-02-26T21:19:46;35.20;;;28.80;;
59416;SDS011;45222;52.458;20.914;2024-02-26T21:23:36;32.00;;;28.00;;
59416;SDS011;45222;52.458;20.914;2024-02-26T21:27:24;33.50;;;28.60;;
59416;SDS011;45222;52.458;20.914;2024-02-26T21:31:12;33.90;;;30.20;;
59416;SDS011;45222;52.458;20.914;2024-02-26T21:35:00;35.30;;;31.50;;
59416;SDS011;45222;52.458;20.914;2024-02-26T21:38:48;35.70;;;30.50;;
59416;SDS011;45222;52.458;20.914;2024-02-26T21:42:35;35.30;;;29.80;;
59416;SDS011;45222;52.458;20.914;2024-02-26T21:46:26;37.90;;;31.10;;
59416;SDS011;45222;52.458;20.914;2024-02-26T21:50:14;35.80;;;31.20;;
59416;SDS011;45222;52.458;20.914;2024-02-26T21:54:02;34.60;;;30.90;;
59416;SDS011;45222;52.458;20.914;2024-02-26T21:57:49;38.20;;;31.10;;
59416;SDS011;45222;52.458;20.914;2024-02-26T22:01:37;36.30;;;32.00;;
59416;SDS011;45222;52.458;20.914;2024-02-26T22:05:25;37.30;;;33.20;;
59416;SDS011;45222;52.458;20.914;2024-02-26T22:09:13;38.10;;;32.80;;
59416;SDS011;45222;52.458;20.914;2024-02-26T22:13:00;37.30;;;33.20;;
59416;SDS011;45222;52.458;20.914;2024-02-26T22:16:48;39.50;;;33.10;;
59416;SDS011;45222;52.458;20.914;2024-02-26T22:20:36;38.30;;;31.40;;
59416;SDS011;45222;52.458;20.914;2024-02-26T22:24:23;34.30;;;30.00;;
59416;SDS011;45222;52.458;20.914;2024-02-26T22:28:12;37.10;;;33.20;;
59416;SDS011;45222;52.458;20.914;2024-02-26T22:31:59;39.50;;;34.40;;
59416;SDS011;45222;52.458;20.914;2024-02-26T22:35:47;39.40;;;34.10;;
59416;SDS011;45222;52.458;20.914;2024-02-26T22:39:35;37.00;;;32.80;;
59416;SDS011;45222;52.458;20.914;2024-02-26T22:43:22;38.40;;;31.80;;
59416;SDS011;45222;52.458;20.914;2024-02-26T22:47:10;39.10;;;31.30;;
59416;SDS011;45222;52.458;20.914;2024-02-26T22:50:58;37.00;;;31.80;;
59416;SDS011;45222;52.458;20.914;2024-02-26T22:54:45;39.30;;;35.00;;
59416;SDS011;45222;52.458;20.914;2024-02-26T22:58:33;38.40;;;33.40;;